Airfield :







YOU CAN JOIN US ON...

 
LOGIN :

Register | Disclaimer

   EN    FR    IT 

 









Legend :    VFR   Marginal VFR   IFR   Intensive IFR   Very Intensive IFR
Visi :
Ceiling :
>= 8 km
>= 3000ft
5 to 8 km
1000 to 3000 ft
1500m to 5 km
500 to 1000 ft
800 to 1500m
200 to 500 ft
< 800m
< 200 ft
Symbols :   Thunderstorms  Fog  Heavy snow  Heavy precipitations  Wind > 20 kt






- Airport Elevation : 881 ft


KNY0 - Fulton County

CURRENT METAR :
  • 220037Z AUTO 32014G18KT 5SM BKN038 BKN047 OVC080 21/20 A2957 RMK AO2 P0005

EXPIRED METARs :
  • 212337Z AUTO 21004KT 10SM SCT049 SCT095 BKN120 27/21 A2953 RMK AO2
  • 212317Z AUTO 23007KT 10SM BKN049 27/20 A2953 RMK AO2
  • 212257Z AUTO 23007KT 10SM BKN049 28/20 A2953 RMK AO2
  • 212237Z AUTO 25006KT 10SM CLR 28/20 A2952 RMK AO2
  • 212217Z AUTO 24010G14KT 10SM SCT055 28/20 A2951 RMK AO2
  • 212157Z AUTO 24007KT 10SM SCT065 29/19 A2950 RMK AO2

TAF N/A



MET'MAP, your aeronautical weather chart ! - Copyright ORBIFLY December 2007 - Disclaimer

ORBIFLY MET'MAP TEAM :

Programming & Development : Alexandra Zaïnal
Concept & original design : Baudouin d'Aumeries
Assistance for programming : Marc-Olivier Méhu
Technical & hardware support : Manuel Goepfert

Contact : metmap@orbifly.com




SOURCES & CREDITS :

   NOAA